createdAt,value
2017-08-29T00:00:39.457Z,100218.30
2017-08-29T00:03:40.822Z,100219.61
2017-08-29T00:06:42.131Z,100220.00
2017-08-29T00:09:43.479Z,100209.49
2017-08-29T00:12:44.805Z,100214.48
2017-08-29T00:15:46.164Z,100204.67
2017-08-29T00:18:47.491Z,100204.23
2017-08-29T00:21:48.839Z,100214.52
2017-08-29T00:24:50.201Z,100213.30
2017-08-29T00:27:51.525Z,100207.83
2017-08-29T00:30:52.913Z,100208.19
2017-08-29T00:33:54.325Z,100204.48
2017-08-29T00:36:55.720Z,100203.34
2017-08-29T00:39:57.050Z,100206.42
2017-08-29T00:42:58.458Z,100205.34
2017-08-29T00:45:59.778Z,100204.67
2017-08-29T00:49:01.130Z,100200.86
2017-08-29T00:52:02.641Z,100198.88
2017-08-29T00:55:04.030Z,100194.19
2017-08-29T00:58:05.597Z,100201.54
2017-08-29T01:01:06.955Z,100192.49
2017-08-29T01:04:08.309Z,100179.55
2017-08-29T01:07:09.627Z,100186.24
2017-08-29T01:10:11.036Z,100183.61
2017-08-29T01:13:12.414Z,100177.59
2017-08-29T01:16:13.849Z,100178.88
2017-08-29T01:19:15.229Z,100173.70
2017-08-29T01:22:16.638Z,100169.61
2017-08-29T01:25:18.021Z,100174.17
2017-08-29T01:28:19.394Z,100179.34
2017-08-29T01:31:20.807Z,100171.59
2017-08-29T01:34:22.208Z,100175.61
2017-08-29T01:37:23.614Z,100169.98
2017-08-29T01:40:24.977Z,100175.64
2017-08-29T01:43:26.350Z,100169.63
2017-08-29T01:46:27.710Z,100163.31
2017-08-29T01:49:29.121Z,100156.02
2017-08-29T01:52:30.575Z,100153.09
2017-08-29T01:55:31.911Z,100156.45
2017-08-29T01:58:33.332Z,100150.05
2017-08-29T02:01:34.678Z,100146.53
2017-08-29T02:04:36.059Z,100148.84
2017-08-29T02:07:38.157Z,100149.63
2017-08-29T02:10:39.524Z,100146.55
2017-08-29T02:13:41.012Z,100153.59
2017-08-29T02:16:42.337Z,100147.48
2017-08-29T02:19:43.694Z,100143.99
2017-08-29T02:22:45.026Z,100133.97
2017-08-29T02:25:46.390Z,100135.64
2017-08-29T02:28:47.687Z,100130.50
2017-08-29T02:31:49.778Z,100134.90
2017-08-29T02:34:51.183Z,100135.72
2017-08-29T02:37:52.542Z,100138.80
2017-08-29T02:40:54.015Z,100132.84
2017-08-29T02:43:55.354Z,100140.64
2017-08-29T02:46:56.713Z,100139.13
2017-08-29T02:49:58.039Z,100128.05
2017-08-29T02:52:59.353Z,100136.23
2017-08-29T02:56:00.665Z,100130.88
2017-08-29T02:59:02.022Z,100123.81
2017-08-29T03:02:03.359Z,100123.30
2017-08-29T03:05:04.926Z,100130.77
2017-08-29T03:08:06.280Z,100131.84
2017-08-29T03:11:07.581Z,100128.09
2017-08-29T03:14:08.960Z,100124.44
2017-08-29T03:17:10.278Z,100114.66
2017-08-29T03:20:11.673Z,100115.20
2017-08-29T03:23:12.983Z,100123.06
2017-08-29T03:26:14.348Z,100119.23
2017-08-29T03:29:15.660Z,100118.76
2017-08-29T03:32:17.041Z,100121.48
2017-08-29T03:35:18.433Z,100120.84
2017-08-29T03:38:19.726Z,100120.10
2017-08-29T03:41:21.046Z,100109.77
2017-08-29T03:44:22.384Z,100121.00
2017-08-29T03:47:23.722Z,100112.08
2017-08-29T03:50:25.042Z,100115.66
2017-08-29T03:53:26.398Z,100115.27
2017-08-29T03:56:27.819Z,100105.95
2017-08-29T03:59:29.178Z,100112.97
2017-08-29T04:02:30.525Z,100114.45
2017-08-29T04:05:31.855Z,100116.84
2017-08-29T04:08:33.214Z,100118.34
2017-08-29T04:11:34.565Z,100118.00
2017-08-29T04:14:35.895Z,100116.23
2017-08-29T04:17:37.189Z,100115.70
2017-08-29T04:20:38.546Z,100122.28
2017-08-29T04:23:39.843Z,100116.47
2017-08-29T04:26:41.195Z,100118.24
2017-08-29T04:29:42.511Z,100117.52
2017-08-29T04:32:43.829Z,100111.49
2017-08-29T04:35:45.196Z,100116.64
2017-08-29T04:38:46.522Z,100107.73
2017-08-29T04:41:47.864Z,100112.04
2017-08-29T04:44:49.199Z,100114.08
2017-08-29T04:47:50.539Z,100111.15
2017-08-29T04:50:51.894Z,100110.72
2017-08-29T04:53:53.255Z,100107.88
2017-08-29T04:56:54.609Z,100124.38
2017-08-29T04:59:55.981Z,100114.83
2017-08-29T05:02:57.402Z,100120.38
2017-08-29T05:05:58.768Z,100111.68
2017-08-29T05:09:00.151Z,100114.09
2017-08-29T05:12:01.482Z,100112.95
2017-08-29T05:15:02.816Z,100118.28
2017-08-29T05:18:04.160Z,100113.05
2017-08-29T05:21:05.519Z,100121.02
2017-08-29T05:24:06.956Z,100124.77
2017-08-29T05:27:08.273Z,100134.71
2017-08-29T05:30:09.618Z,100128.25
2017-08-29T05:33:10.941Z,100132.14
2017-08-29T05:36:12.352Z,100129.73
2017-08-29T05:39:13.716Z,100126.19
2017-08-29T05:42:15.043Z,100127.73
2017-08-29T05:45:16.480Z,100125.78
2017-08-29T05:48:17.822Z,100128.66
2017-08-29T05:51:19.352Z,100122.05
2017-08-29T05:54:20.767Z,100116.33
2017-08-29T05:57:22.139Z,100116.94
2017-08-29T06:00:23.472Z,100124.41
2017-08-29T06:03:24.826Z,100128.83
2017-08-29T06:06:26.599Z,100128.70
2017-08-29T06:09:28.431Z,100122.63
2017-08-29T06:12:30.325Z,100134.59
2017-08-29T06:15:32.167Z,100124.44
2017-08-29T06:18:34.096Z,100118.27
2017-08-29T06:21:35.438Z,100114.70
2017-08-29T06:24:37.578Z,100123.56
2017-08-29T06:27:38.866Z,100114.66
2017-08-29T06:30:40.209Z,100121.43
2017-08-29T06:33:41.525Z,100117.23
2017-08-29T06:36:42.948Z,100109.69
2017-08-29T06:39:44.322Z,100117.98
2017-08-29T06:42:45.708Z,100107.83
2017-08-29T06:45:47.038Z,100112.47
2017-08-29T06:48:48.463Z,100113.33
2017-08-29T06:51:49.818Z,100119.00
2017-08-29T06:54:51.146Z,100113.73
2017-08-29T06:57:52.531Z,100106.13
2017-08-29T07:00:53.823Z,100107.52
2017-08-29T07:03:55.197Z,100095.86
2017-08-29T07:06:56.535Z,100099.29
2017-08-29T07:09:57.918Z,100100.23
2017-08-29T07:12:59.457Z,100104.05
2017-08-29T07:16:00.851Z,100106.34
2017-08-29T07:19:02.224Z,100109.27
2017-08-29T07:22:03.555Z,100107.81
2017-08-29T07:25:04.974Z,100108.75
2017-08-29T07:28:06.324Z,100106.97
2017-08-29T07:31:07.673Z,100109.67
2017-08-29T07:34:09.098Z,100114.38
2017-08-29T07:37:10.529Z,100113.56
2017-08-29T07:40:12.225Z,100121.02
2017-08-29T07:43:13.558Z,100115.32
2017-08-29T07:46:14.933Z,100111.59
2017-08-29T07:49:16.276Z,100110.11
2017-08-29T07:52:17.665Z,100107.08
2017-08-29T07:55:19.018Z,100117.00
2017-08-29T07:58:20.351Z,100107.36
2017-08-29T08:01:21.732Z,100106.34
2017-08-29T08:04:23.074Z,100104.39
2017-08-29T08:07:24.426Z,100093.00
2017-08-29T08:10:25.746Z,100097.33
2017-08-29T08:13:27.137Z,100099.59
2017-08-29T08:16:28.491Z,100102.58
2017-08-29T08:19:29.862Z,100099.50
2017-08-29T08:22:31.204Z,100100.98
2017-08-29T08:25:32.578Z,100105.00
2017-08-29T08:28:33.977Z,100109.79
2017-08-29T08:31:35.329Z,100101.36
2017-08-29T08:34:36.756Z,100093.70
2017-08-29T08:37:38.099Z,100095.41
2017-08-29T08:40:39.457Z,100097.78
2017-08-29T08:43:40.746Z,100096.51
2017-08-29T08:46:42.091Z,100101.14
2017-08-29T08:49:44.035Z,100091.24
2017-08-29T08:52:45.395Z,100093.50
2017-08-29T08:55:47.094Z,100092.91
2017-08-29T08:58:48.480Z,100093.65
2017-08-29T09:01:49.847Z,100085.44
2017-08-29T09:04:51.183Z,100087.87
2017-08-29T09:07:52.710Z,100087.52
2017-08-29T09:10:54.032Z,100085.72
2017-08-29T09:13:55.382Z,100085.86
2017-08-29T09:16:56.710Z,100084.87
2017-08-29T09:19:58.086Z,100080.87
2017-08-29T09:22:59.419Z,100083.79
2017-08-29T09:26:00.830Z,100082.64
2017-08-29T09:29:02.169Z,100075.48
2017-08-29T09:32:03.484Z,100070.19
2017-08-29T09:35:05.141Z,100066.81
2017-08-29T09:38:06.457Z,100069.21
2017-08-29T09:41:07.817Z,100061.82
2017-08-29T09:44:09.135Z,100065.78
2017-08-29T09:47:10.692Z,100056.08
2017-08-29T09:50:12.027Z,100046.56
2017-08-29T09:53:13.378Z,100053.48
2017-08-29T09:56:14.726Z,100040.51
2017-08-29T09:59:16.283Z,100039.16
2017-08-29T10:02:17.649Z,100042.04
2017-08-29T10:05:18.964Z,100029.58
2017-08-29T10:08:20.360Z,100032.77
2017-08-29T10:11:21.817Z,100032.91
2017-08-29T10:14:23.141Z,100027.14
2017-08-29T10:17:24.501Z,100030.70
2017-08-29T10:20:25.811Z,100014.40
2017-08-29T10:23:27.178Z,100017.63
2017-08-29T10:26:28.463Z,100023.44
2017-08-29T10:29:29.887Z,100012.88
2017-08-29T10:32:31.449Z,100014.20
2017-08-29T10:35:32.974Z,100008.32
2017-08-29T10:38:34.438Z,100002.02
2017-08-29T10:41:36.071Z,100007.35
2017-08-29T10:44:37.470Z,99998.60
2017-08-29T10:47:38.907Z,100006.30
2017-08-29T10:50:40.309Z,100002.52
2017-08-29T10:53:41.634Z,100008.94
2017-08-29T10:56:42.986Z,100012.16
2017-08-29T10:59:44.327Z,100006.48
2017-08-29T11:02:45.683Z,100009.14
2017-08-29T11:05:47.019Z,99998.35
2017-08-29T11:08:48.327Z,99996.95
2017-08-29T11:11:49.719Z,99998.20
2017-08-29T11:14:51.385Z,99993.00
2017-08-29T11:17:52.696Z,99984.36
2017-08-29T11:20:54.082Z,99982.72
2017-08-29T11:23:55.439Z,99984.55
2017-08-29T11:26:56.820Z,99983.17
2017-08-29T11:29:58.174Z,99984.70
2017-08-29T11:32:59.553Z,99984.10
2017-08-29T11:36:01.534Z,99992.03
2017-08-29T11:39:03.035Z,99990.25
2017-08-29T11:42:04.550Z,99978.69
2017-08-29T11:45:05.939Z,99981.20
2017-08-29T11:48:07.342Z,99975.98
2017-08-29T11:51:08.701Z,99976.95
2017-08-29T11:54:10.065Z,99971.80
2017-08-29T11:57:11.426Z,99973.68
2017-08-29T12:00:12.786Z,99976.53
2017-08-29T12:03:14.217Z,99965.70
2017-08-29T12:06:15.621Z,99964.22
2017-08-29T12:09:17.154Z,99961.97
2017-08-29T12:12:18.483Z,99964.20
2017-08-29T12:15:19.858Z,99951.03
2017-08-29T12:18:21.161Z,99948.55
2017-08-29T12:21:22.503Z,99957.93
2017-08-29T12:24:23.822Z,99950.77
2017-08-29T12:27:25.206Z,99951.36
2017-08-29T12:30:26.537Z,99950.77
2017-08-29T12:33:27.919Z,99949.77
2017-08-29T12:36:29.490Z,99937.70
2017-08-29T12:39:30.832Z,99940.44
2017-08-29T12:42:32.207Z,99928.11
2017-08-29T12:45:33.577Z,99924.27
2017-08-29T12:48:34.943Z,99924.64
2017-08-29T12:51:36.283Z,99932.48
2017-08-29T12:54:37.645Z,99926.99
2017-08-29T12:57:39.722Z,99924.52
2017-08-29T13:00:41.046Z,99926.40
2017-08-29T13:03:42.534Z,99930.36
2017-08-29T13:06:43.854Z,99921.30
2017-08-29T13:09:45.222Z,99921.55
2017-08-29T13:12:46.528Z,99910.02
2017-08-29T13:15:47.927Z,99915.39
2017-08-29T13:18:49.287Z,99922.48
2017-08-29T13:21:50.748Z,99915.39
2017-08-29T13:24:52.103Z,99908.95
2017-08-29T13:27:53.495Z,99901.62
2017-08-29T13:30:54.954Z,99891.90
2017-08-29T13:33:56.363Z,99889.91
2017-08-29T13:36:57.947Z,99893.83
2017-08-29T13:39:59.380Z,99893.93
2017-08-29T13:43:00.735Z,99897.65
2017-08-29T13:46:02.048Z,99891.28
2017-08-29T13:49:03.587Z,99879.61
2017-08-29T13:52:04.942Z,99880.44
2017-08-29T13:55:06.308Z,99880.27
2017-08-29T13:58:07.766Z,99874.52
2017-08-29T14:01:09.218Z,99870.41
2017-08-29T14:04:10.619Z,99862.16
2017-08-29T14:07:12.018Z,99866.27
2017-08-29T14:10:13.582Z,99862.84
2017-08-29T14:13:14.985Z,99855.30
2017-08-29T14:16:16.424Z,99858.61
2017-08-29T14:19:17.975Z,99857.97
2017-08-29T14:22:19.356Z,99846.55
2017-08-29T14:25:21.122Z,99853.55
2017-08-29T14:28:22.562Z,99853.95
2017-08-29T14:31:24.042Z,99852.09
2017-08-29T14:34:25.687Z,99858.48
2017-08-29T14:37:27.199Z,99846.27
2017-08-29T14:40:28.674Z,99842.24
2017-08-29T14:43:30.140Z,99842.16
2017-08-29T14:46:50.103Z,99853.29
2017-08-29T14:49:51.606Z,99846.92
2017-08-29T14:52:53.072Z,99851.97
2017-08-29T14:55:54.527Z,99848.46
2017-08-29T14:58:56.110Z,99841.81
2017-08-29T15:01:57.572Z,99838.72
2017-08-29T15:04:59.183Z,99839.70
2017-08-29T15:08:00.622Z,99838.19
2017-08-29T15:11:02.129Z,99833.37
2017-08-29T15:14:03.576Z,99837.36
2017-08-29T15:17:05.095Z,99831.64
2017-08-29T15:20:06.547Z,99831.14
2017-08-29T15:23:08.112Z,99831.63
2017-08-29T15:26:09.605Z,99825.06
2017-08-29T15:29:11.047Z,99817.76
2017-08-29T15:32:12.475Z,99818.06
2017-08-29T15:35:13.996Z,99815.19
2017-08-29T15:38:15.483Z,99813.55
2017-08-29T15:41:16.988Z,99807.59
2017-08-29T15:44:18.395Z,99810.61
2017-08-29T15:47:19.790Z,99810.55
2017-08-29T15:50:21.225Z,99815.20
2017-08-29T15:53:22.791Z,99811.84
2017-08-29T15:56:24.203Z,99811.03
2017-08-29T15:59:25.662Z,99812.77
2017-08-29T16:02:27.127Z,99813.58
2017-08-29T16:05:28.586Z,99811.28
2017-08-29T16:08:30.027Z,99822.40
2017-08-29T16:11:31.510Z,99817.19
2017-08-29T16:14:32.997Z,99817.69
2017-08-29T16:17:34.572Z,99810.58
2017-08-29T16:20:38.442Z,99814.83
2017-08-29T16:23:41.181Z,99809.97
2017-08-29T16:26:43.246Z,99810.09
2017-08-29T16:29:44.719Z,99805.33
2017-08-29T16:32:47.790Z,99802.17
2017-08-29T16:35:51.427Z,99806.54
2017-08-29T16:38:54.323Z,99801.11
2017-08-29T16:41:56.884Z,99793.28
2017-08-29T16:44:59.505Z,99795.23
2017-08-29T16:48:02.034Z,99783.91
2017-08-29T16:51:03.501Z,99786.19
2017-08-29T16:54:05.682Z,99792.86
2017-08-29T16:57:08.492Z,99789.19
2017-08-29T17:00:10.899Z,99790.86
2017-08-29T17:03:12.632Z,99792.07
2017-08-29T17:06:14.225Z,99789.97
2017-08-29T17:09:15.732Z,99796.58
2017-08-29T17:12:17.301Z,99797.13
2017-08-29T17:15:18.821Z,99793.44
2017-08-29T17:18:20.246Z,99795.81
2017-08-29T17:21:21.803Z,99797.29
2017-08-29T17:24:23.247Z,99788.84
2017-08-29T17:27:24.700Z,99798.80
2017-08-29T17:30:26.215Z,99791.78
2017-08-29T17:33:27.689Z,99788.70
2017-08-29T17:36:29.360Z,99784.23
2017-08-29T17:39:30.794Z,99787.19
2017-08-29T17:42:32.262Z,99780.31
2017-08-29T17:45:33.704Z,99779.34
2017-08-29T17:48:35.339Z,99775.73
2017-08-29T17:51:36.779Z,99778.14
2017-08-29T17:54:38.239Z,99785.70
2017-08-29T17:57:39.682Z,99778.88
2017-08-29T18:00:41.217Z,99784.31
2017-08-29T18:03:42.691Z,99784.11
2017-08-29T18:06:44.142Z,99787.03
2017-08-29T18:09:45.743Z,99789.64
2017-08-29T18:12:47.163Z,99779.39
2017-08-29T18:15:48.670Z,99787.14
2017-08-29T18:18:50.136Z,99783.30
2017-08-29T18:21:51.631Z,99778.77
2017-08-29T18:24:53.036Z,99772.30
2017-08-29T18:27:54.445Z,99772.39
2017-08-29T18:30:55.845Z,99771.19
2017-08-29T18:33:57.311Z,99779.95
2017-08-29T18:36:58.912Z,99773.58
2017-08-29T18:40:00.436Z,99770.73
2017-08-29T18:43:01.904Z,99773.45
2017-08-29T18:46:03.307Z,99768.39
2017-08-29T18:49:04.750Z,99765.34
2017-08-29T18:52:06.314Z,99765.13
2017-08-29T18:55:07.852Z,99770.18
2017-08-29T18:58:10.084Z,99777.26
2017-08-29T19:01:11.780Z,99774.10
2017-08-29T19:04:14.788Z,99775.83
2017-08-29T19:07:16.292Z,99772.82
2017-08-29T19:10:18.925Z,99768.98
2017-08-29T19:13:20.907Z,99762.83
2017-08-29T19:16:22.453Z,99767.83
2017-08-29T19:19:23.910Z,99758.20
2017-08-29T19:22:25.529Z,99754.98
2017-08-29T19:25:26.992Z,99751.70
2017-08-29T19:28:30.162Z,99760.78
2017-08-29T19:31:32.175Z,99755.52
2017-08-29T19:34:35.085Z,99759.25
2017-08-29T19:37:36.625Z,99757.70
2017-08-29T19:40:38.117Z,99755.61
2017-08-29T19:43:40.530Z,99760.41
2017-08-29T19:46:43.697Z,99750.36
2017-08-29T19:49:45.321Z,99756.95
2017-08-29T19:52:46.983Z,99757.81
2017-08-29T19:55:48.860Z,99756.45
2017-08-29T19:58:50.831Z,99747.34
2017-08-29T20:01:53.700Z,99750.59
2017-08-29T20:04:55.232Z,99747.27
2017-08-29T20:07:58.135Z,99750.55
2017-08-29T20:10:59.709Z,99753.48
2017-08-29T20:14:01.320Z,99750.92
2017-08-29T20:17:02.893Z,99752.10
2017-08-29T20:20:04.531Z,99742.51
2017-08-29T20:23:06.023Z,99742.41
2017-08-29T20:26:07.466Z,99739.81
2017-08-29T20:32:25.533Z,99728.34
2017-08-29T20:35:27.000Z,99728.84
2017-08-29T20:38:28.530Z,99731.08
2017-08-29T20:41:30.034Z,99736.77
2017-08-29T20:44:31.517Z,99740.63
2017-08-29T20:47:33.032Z,99732.66
2017-08-29T20:50:34.473Z,99735.69
2017-08-29T20:53:35.913Z,99738.88
2017-08-29T20:56:37.419Z,99741.58
2017-08-29T20:59:38.880Z,99738.33
2017-08-29T21:02:40.479Z,99732.88
2017-08-29T21:05:41.891Z,99741.75
2017-08-29T21:08:43.544Z,99742.91
2017-08-29T21:11:45.026Z,99741.64
2017-08-29T21:14:46.544Z,99739.93
2017-08-29T21:17:48.061Z,99739.10
2017-08-29T21:20:49.773Z,99739.73
2017-08-29T21:23:51.250Z,99737.00
2017-08-29T21:26:52.708Z,99739.78
2017-08-29T21:29:54.760Z,99729.91
2017-08-29T21:32:56.338Z,99725.59
2017-08-29T21:35:57.903Z,99735.95
2017-08-29T21:39:00.152Z,99730.84
2017-08-29T21:42:01.667Z,99727.44
2017-08-29T21:45:03.182Z,99719.44
2017-08-29T21:48:04.731Z,99722.02
2017-08-29T21:51:06.374Z,99723.25
2017-08-29T21:54:07.843Z,99715.16
2017-08-29T21:57:09.341Z,99716.64
2017-08-29T22:00:10.855Z,99709.67
2017-08-29T22:03:12.378Z,99698.92
2017-08-29T22:06:13.891Z,99700.70
2017-08-29T22:09:15.394Z,99707.05
2017-08-29T22:12:17.019Z,99701.37
2017-08-29T22:15:18.524Z,99700.69
2017-08-29T22:18:20.039Z,99695.63
2017-08-29T22:21:21.530Z,99704.16
2017-08-29T22:24:23.049Z,99701.81
2017-08-29T22:27:24.560Z,99691.39
2017-08-29T22:30:26.065Z,99694.23
2017-08-29T22:36:35.857Z,99680.30
2017-08-29T22:39:37.373Z,99680.11
2017-08-29T22:42:38.944Z,99681.94
2017-08-29T22:45:40.452Z,99673.41
2017-08-29T22:48:41.929Z,99675.67
2017-08-29T22:51:43.504Z,99679.13
2017-08-29T22:54:45.105Z,99667.47
2017-08-29T22:57:46.583Z,99666.64
2017-08-29T23:00:48.082Z,99671.20
2017-08-29T23:03:49.552Z,99660.53
2017-08-29T23:06:51.982Z,99663.16
2017-08-29T23:09:53.452Z,99666.11
2017-08-29T23:12:54.949Z,99665.84
2017-08-29T23:15:56.404Z,99657.86
2017-08-29T23:18:57.932Z,99654.60
2017-08-29T23:21:59.539Z,99647.22
2017-08-29T23:25:00.996Z,99644.34
2017-08-29T23:28:02.484Z,99640.35
2017-08-29T23:31:03.943Z,99640.52
2017-08-29T23:34:05.526Z,99642.65
2017-08-29T23:37:06.982Z,99632.27
2017-08-29T23:40:08.469Z,99626.44
2017-08-29T23:43:10.087Z,99634.56
2017-08-29T23:46:11.506Z,99625.47
2017-08-29T23:49:13.122Z,99623.03
2017-08-29T23:52:14.575Z,99612.02
2017-08-29T23:55:16.046Z,99610.40
2017-08-29T23:58:17.488Z,99611.80
